Time;durP1;ratioP1;P1;durP2;ratioP2;P2;SDS_P1;SDS_P2;PMS_P1;PMS_P2;Temp;Humidity;BMP_temperature;BMP_pressure;BME280_temperature;BME280_humidity;BME280_pressure;Samples;Min_cycle;Max_cycle;Signal;HPM_P1;HPM_P2
2023/01/12 00:01:16;;;;;;;7.57;1.57;;;;;;;;;;5043064;28;20044;-78
2023/01/12 00:03:42;;;;;;;18.77;2.47;;;;;;;;;;5027785;28;20037;-77
2023/01/12 00:06:11;;;;;;;13.17;2.50;;;;;;;;;;5042826;28;20038;-78
2023/01/12 00:08:37;;;;;;;5.43;1.43;;;;;;;;;;5030809;28;20138;-75
2023/01/12 00:11:03;;;;;;;10.73;2.23;;;;;;;;;;5041434;28;20116;-77
2023/01/12 00:13:30;;;;;;;7.03;1.77;;;;;;;;;;5042307;28;20045;-76
2023/01/12 00:18:41;;;;;;;4.97;1.20;;;;;;;;;;5033051;28;20051;-77
2023/01/12 00:21:09;;;;;;;7.77;2.17;;;;;;;;;;5046960;28;20037;-76
2023/01/12 00:23:35;;;;;;;7.13;1.67;;;9.90;99.90;;;;;;5028766;28;20037;-76
2023/01/12 00:26:01;;;;;;;13.43;1.70;;;9.90;99.90;;;;;;5029726;28;20039;-76
2023/01/12 00:28:26;;;;;;;8.87;1.40;;;9.80;99.90;;;;;;5025302;28;20029;-76
2023/01/12 00:30:52;;;;;;;8.60;1.10;;;9.80;99.90;;;;;;5031003;28;20093;-77
2023/01/12 00:33:20;;;;;;;4.80;1.40;;;9.90;99.90;;;;;;5026693;28;20172;-75
2023/01/12 00:35:46;;;;;;;8.13;1.43;;;;;;;;;;5040765;28;20044;-76
2023/01/12 00:38:12;;;;;;;6.90;1.27;;;;;;;;;;5028602;28;20034;-77
2023/01/12 00:40:38;;;;;;;5.13;1.70;;;;;;;;;;5032202;28;20083;-77
2023/01/12 00:45:49;;;;;;;7.73;1.83;;;;;;;;;;5030351;28;20048;-77
2023/01/12 00:48:15;;;;;;;7.83;1.73;;;;;;;;;;5046377;28;20021;-77
2023/01/12 00:50:45;;;;;;;7.13;1.77;;;;;;;;;;5045215;28;20048;-77
2023/01/12 00:53:11;;;;;;;5.30;0.93;;;;;;;;;;5039817;28;20033;-77
2023/01/12 00:55:37;;;;;;;5.77;1.30;;;;;;;;;;5030394;28;20124;-77
2023/01/12 00:58:06;;;;;;;5.90;1.23;;;;;;;;;;5027496;28;20117;-76
2023/01/12 01:00:32;;;;;;;9.40;1.90;;;;;;;;;;5030217;28;20034;-76
2023/01/12 01:02:58;;;;;;;9.20;1.57;;;;;;;;;;5024751;28;20151;-77
2023/01/12 01:05:26;;;;;;;10.73;2.07;;;;;;;;;;5045765;28;20021;-77
2023/01/12 01:07:55;;;;;;;9.63;1.70;;;;;;;;;;5041876;28;20446;-76
2023/01/12 01:10:21;;;;;;;7.77;1.60;;;;;;;;;;5038382;28;20021;-78
2023/01/12 01:12:46;;;;;;;10.00;2.13;;;;;;;;;;5045875;28;21618;-77
2023/01/12 01:15:12;;;;;;;8.43;1.60;;;;;;;;;;5046410;28;20041;-76
2023/01/12 01:17:38;;;;;;;8.23;1.73;;;;;;;;;;5023760;28;20034;-76
2023/01/12 01:20:05;;;;;;;7.57;1.43;;;;;;;;;;5031226;28;20618;-75
2023/01/12 01:22:31;;;;;;;13.70;1.87;;;;;;;;;;5041407;28;20091;-78
2023/01/12 01:24:56;;;;;;;10.87;1.60;;;;;;;;;;5029211;28;20520;-77
2023/01/12 01:27:22;;;;;;;10.50;1.97;;;;;;;;;;5028192;28;20025;-76
2023/01/12 01:29:48;;;;;;;9.70;1.80;;;;;;;;;;5025017;28;20064;-77
2023/01/12 01:32:14;;;;;;;9.53;2.13;;;;;;;;;;5030292;28;20109;-77
2023/01/12 01:34:40;;;;;;;8.10;1.60;;;;;;;;;;5045336;28;20045;-76
2023/01/12 01:37:08;;;;;;;8.87;1.77;;;10.00;99.90;;;;;;5029530;28;20521;-78
2023/01/12 01:39:34;;;;;;;8.73;2.37;;;;;;;;;;5021742;28;20386;-76
2023/01/12 01:42:00;;;;;;;8.13;1.60;;;;;;;;;;5045415;28;20034;-77
2023/01/12 01:44:31;;;;;;;12.13;2.67;;;;;;;;;;5044514;28;20079;-76
2023/01/12 01:46:59;;;;;;;11.20;2.60;;;;;;;;;;5045502;28;20021;-77
2023/01/12 01:49:33;;;;;;;9.20;1.90;;;;;;;;;;5023752;28;20331;-76
2023/01/12 01:52:21;;;;;;;10.00;2.10;;;10.00;99.90;;;;;;5027772;28;20033;-76
2023/01/12 01:54:50;;;;;;;9.43;1.83;;;;;;;;;;5027748;28;20056;-77
2023/01/12 01:57:16;;;;;;;11.43;1.77;;;;;;;;;;5027290;28;20037;-76
2023/01/12 01:59:45;;;;;;;13.43;2.03;;;;;;;;;;5028939;28;20235;-77
2023/01/12 02:02:11;;;;;;;14.53;2.23;;;;;;;;;;5044352;28;20029;-77
2023/01/12 02:04:38;;;;;;;12.70;2.80;;;;;;;;;;5040122;28;20044;-77
2023/01/12 02:07:05;;;;;;;9.87;2.00;;;;;;;;;;5044931;28;20025;-77
2023/01/12 02:09:31;;;;;;;13.53;2.40;;;;;;;;;;5026467;28;20742;-76
2023/01/12 02:17:33;;;;;;;12.10;2.57;;;;;;;;;;5028495;28;20052;-75
2023/01/12 02:20:02;;;;;;;14.07;2.53;;;;;;;;;;5024985;28;20107;-77
2023/01/12 02:22:47;;;;;;;21.40;3.10;;;;;;;;;;5028791;28;20025;-76
2023/01/12 02:25:32;;;;;;;14.83;2.53;;;;;;;;;;5039466;28;20037;-76
2023/01/12 02:28:24;;;;;;;12.93;2.23;;;;;;;;;;5029189;28;20083;-76
2023/01/12 02:30:59;;;;;;;11.57;2.43;;;;;;;;;;5037443;28;20047;-77
2023/01/12 02:33:41;;;;;;;11.40;2.40;;;;;;;;;;5036845;28;20101;-76
2023/01/12 02:36:13;;;;;;;11.47;2.53;;;;;;;;;;5045369;28;20045;-76
2023/01/12 02:38:51;;;;;;;14.93;2.88;;;;;;;;;;5038412;28;20296;-77
2023/01/12 02:41:17;;;;;;;13.17;2.60;;;;;;;;;;5028624;28;20037;-76
2023/01/12 02:43:44;;;;;;;12.10;1.90;;;;;;;;;;5027570;28;20029;-75
2023/01/12 02:46:22;;;;;;;15.00;3.07;;;;;;;;;;5025949;28;20060;-77
2023/01/12 02:48:55;;;;;;;15.57;2.23;;;;;;;;;;5028700;28;20103;-76
2023/01/12 02:51:23;;;;;;;13.55;1.73;;;;;;;;;;5027904;28;20033;-75
2023/01/12 02:53:51;;;;;;;10.97;1.87;;;;;;;;;;5028741;28;20029;-76
2023/01/12 02:56:20;;;;;;;14.17;2.47;;;;;;;;;;5037498;28;20046;-76
2023/01/12 02:58:53;;;;;;;14.43;2.17;;;;;;;;;;5047918;28;20045;-76
2023/01/12 03:01:20;;;;;;;10.63;1.77;;;;;;;;;;5028910;28;20468;-75
2023/01/12 03:03:47;;;;;;;10.60;2.07;;;;;;;;;;5023911;28;20893;-76
2023/01/12 03:06:16;;;;;;;11.47;2.73;;;;;;;;;;5041524;28;20121;-77
2023/01/12 03:08:42;;;;;;;9.53;2.17;;;;;;;;;;5026880;28;20032;-77
2023/01/12 03:11:11;;;;;;;14.27;2.23;;;;;;;;;;5031948;28;20113;-76
2023/01/12 03:13:40;;;;;;;10.83;1.97;;;;;;;;;;5032546;28;20086;-77
2023/01/12 03:16:07;;;;;;;11.07;2.20;;;;;;;;;;5048126;28;20129;-77
2023/01/12 03:18:43;;;;;;;15.73;2.10;;;;;;;;;;5047726;28;20041;-76
2023/01/12 03:21:16;;;;;;;10.27;1.80;;;;;;;;;;5047845;28;20087;-78
2023/01/12 03:23:46;;;;;;;12.50;1.88;;;;;;;;;;5047454;28;20029;-77
2023/01/12 03:26:16;;;;;;;6.80;1.67;;;;;;;;;;5026839;28;20087;-76
2023/01/12 03:28:45;;;;;;;10.10;1.87;;;;;;;;;;5026151;28;20033;-76
2023/01/12 03:31:12;;;;;;;10.27;1.90;;;;;;;;;;5046568;28;20026;-78
2023/01/12 03:33:40;;;;;;;6.37;1.37;;;;;;;;;;5049072;28;20033;-77
2023/01/12 03:36:09;;;;;;;10.60;2.60;;;;;;;;;;5029122;28;20120;-79
2023/01/12 03:38:38;;;;;;;10.33;1.80;;;;;;;;;;5045400;28;20856;-77
2023/01/12 03:41:11;;;;;;;8.77;1.43;;;;;;;;;;5027182;28;20025;-78
2023/01/12 03:43:39;;;;;;;9.47;1.30;;;;;;;;;;5026689;28;20041;-77
2023/01/12 03:46:15;;;;;;;12.17;2.00;;;;;;;;;;5048094;28;20148;-78
2023/01/12 03:48:43;;;;;;;6.83;1.40;;;;;;;;;;5042027;28;20117;-78
2023/01/12 03:51:19;;;;;;;7.53;1.20;;;;;;;;;;5032889;28;20026;-77
2023/01/12 03:53:48;;;;;;;9.37;1.60;;;;;;;;;;5042138;28;20125;-76
2023/01/12 03:56:16;;;;;;;8.03;1.33;;;;;;;;;;5031955;28;20115;-78
2023/01/12 03:58:42;;;;;;;8.63;1.33;;;;;;;;;;5045101;28;20033;-77
2023/01/12 04:01:08;;;;;;;6.83;1.33;;;;;;;;;;5026926;28;20033;-78
2023/01/12 04:03:34;;;;;;;9.87;2.10;;;;;;;;;;5027800;28;20029;-77
2023/01/12 04:06:00;;;;;;;9.97;1.63;;;;;;;;;;5029998;28;20886;-77
2023/01/12 04:08:26;;;;;;;4.97;1.53;;;;;;;;;;5041567;28;20121;-78
2023/01/12 04:10:52;;;;;;;7.27;1.10;;;;;;;;;;5026865;28;20025;-78
2023/01/12 04:13:18;;;;;;;10.03;1.80;;;;;;;;;;5047284;28;20156;-78
2023/01/12 04:15:46;;;;;;;8.57;1.70;;;;;;;;;;5040698;28;20030;-77
2023/01/12 04:18:12;;;;;;;6.80;1.63;;;;;;;;;;5047058;28;20029;-78
2023/01/12 04:20:38;;;;;;;7.13;1.40;;;;;;;;;;5048136;28;20040;-77
2023/01/12 04:23:08;;;;;;;8.20;1.13;;;;;;;;;;5031941;28;20041;-77
2023/01/12 04:25:34;;;;;;;6.23;0.93;;;;;;;;;;5041155;28;20033;-78
2023/01/12 04:28:03;;;;;;;10.20;1.40;;;;;;;;;;5042289;28;20834;-77
2023/01/12 04:30:30;;;;;;;4.20;1.17;;;;;;;;;;5031411;28;20564;-75
2023/01/12 04:32:57;;;;;;;7.67;1.37;;;;;;;;;;5040515;28;20032;-78
2023/01/12 04:35:26;;;;;;;4.07;1.07;;;;;;;;;;5028719;28;20069;-79
2023/01/12 04:37:52;;;;;;;12.33;1.73;;;;;;;;;;5046043;28;20168;-78
2023/01/12 04:40:19;;;;;;;5.10;1.10;;;;;;;;;;5028374;28;20075;-78
2023/01/12 04:43:00;;;;;;;5.30;1.40;;;;;;;;;;5049098;28;20045;-76
2023/01/12 04:45:26;;;;;;;6.07;1.10;;;;;;;;;;5040654;28;20489;-77
2023/01/12 04:47:52;;;;;;;6.50;1.37;;;9.10;99.90;;;;;;5027724;28;21618;-77
2023/01/12 04:50:17;;;;;;;5.83;0.80;;;9.10;99.90;;;;;;5027121;28;20029;-77
2023/01/12 04:52:44;;;;;;;5.43;1.23;;;9.10;99.90;;;;;;5030349;28;20026;-77
2023/01/12 04:55:10;;;;;;;3.47;0.70;;;9.00;99.90;;;;;;5031507;28;20086;-77
2023/01/12 04:57:35;;;;;;;5.07;1.43;;;9.00;99.90;;;;;;5030824;28;20041;-78
2023/01/12 05:00:02;;;;;;;6.10;1.20;;;;;;;;;;5031850;28;20044;-79
2023/01/12 05:02:27;;;;;;;4.93;1.03;;;8.90;99.90;;;;;;5039495;28;20087;-77
2023/01/12 05:04:53;;;;;;;5.77;1.03;;;8.90;99.90;;;;;;5048734;28;20061;-79
2023/01/12 05:07:20;;;;;;;3.20;0.97;;;9.00;99.90;;;;;;5029786;28;20025;-78
2023/01/12 05:12:30;;;;;;;5.83;1.10;;;8.80;99.90;;;;;;5031362;28;20493;-77
2023/01/12 05:14:56;;;;;;;8.17;1.60;;;8.80;99.90;;;;;;5027696;28;20053;-77
2023/01/12 05:17:21;;;;;;;8.47;1.23;;;8.80;99.90;;;;;;5025924;28;20429;-77
2023/01/12 05:19:48;;;;;;;2.63;0.80;;;8.80;99.90;;;;;;5025730;28;20072;-78
2023/01/12 05:22:14;;;;;;;6.30;1.17;;;8.80;99.90;;;;;;5029561;28;20112;-78
2023/01/12 05:24:42;;;;;;;11.20;1.17;;;8.70;99.90;;;;;;5030198;28;20116;-77
2023/01/12 05:27:07;;;;;;;4.37;1.10;;;8.80;99.90;;;;;;5026861;28;20033;-77
2023/01/12 05:29:35;;;;;;;4.13;1.60;;;8.70;99.90;;;;;;5025596;28;20733;-77
2023/01/12 05:32:03;;;;;;;5.70;1.83;;;8.70;99.90;;;;;;5046142;28;20037;-78
2023/01/12 05:34:28;;;;;;;5.57;1.37;;;8.70;99.90;;;;;;5023496;28;20474;-77
2023/01/12 05:36:54;;;;;;;4.43;1.00;;;;;;;;;;5023533;28;20068;-79
2023/01/12 05:39:20;;;;;;;4.60;0.70;;;8.70;99.90;;;;;;5045647;28;20100;-78
2023/01/12 05:44:30;;;;;;;4.30;1.00;;;8.60;99.90;;;;;;5030723;28;20080;-77
2023/01/12 05:46:55;;;;;;;2.77;0.67;;;8.60;99.90;;;;;;5027752;28;20403;-77
2023/01/12 05:49:21;;;;;;;6.23;0.97;;;8.50;99.90;;;;;;5024625;28;20021;-76
2023/01/12 05:51:47;;;;;;;5.57;0.90;;;8.50;99.90;;;;;;5033500;28;20030;-75
2023/01/12 05:54:13;;;;;;;6.53;1.00;;;;;;;;;;5030927;28;20470;-76
2023/01/12 05:56:38;;;;;;;7.67;1.43;;;8.50;99.90;;;;;;5030677;28;20037;-77
2023/01/12 05:59:04;;;;;;;6.83;0.87;;;8.50;99.90;;;;;;5045915;28;20053;-77
2023/01/12 06:01:30;;;;;;;5.83;1.00;;;8.50;99.90;;;;;;5027281;28;20040;-77
2023/01/12 06:04:00;;;;;;;5.23;1.00;;;8.60;99.90;;;;;;5029677;28;20033;-77
2023/01/12 06:06:30;;;;;;;5.03;0.77;;;8.50;99.90;;;;;;5021399;28;20049;-78
2023/01/12 06:08:56;;;;;;;2.20;0.60;;;8.60;99.90;;;;;;5029942;28;20053;-76
2023/01/12 06:14:08;;;;;;;1.77;0.40;;;8.60;99.90;;;;;;5031407;28;20428;-77
2023/01/12 06:16:38;;;;;;;4.00;0.67;;;8.50;99.90;;;;;;5019086;28;20038;-77
2023/01/12 06:19:03;;;;;;;4.77;0.60;;;8.60;99.90;;;;;;5023524;28;20037;-76
2023/01/12 06:21:31;;;;;;;1.60;0.40;;;8.60;99.90;;;;;;5026405;28;20032;-78
2023/01/12 06:23:58;;;;;;;2.43;0.50;;;8.60;99.90;;;;;;5029128;28;20128;-77
2023/01/12 06:26:24;;;;;;;3.17;1.20;;;8.50;99.90;;;;;;5024845;28;20029;-78
2023/01/12 06:28:50;;;;;;;4.73;0.47;;;8.50;99.90;;;;;;5045450;28;20030;-77
2023/01/12 06:31:16;;;;;;;4.13;0.73;;;;;;;;;;5029343;28;20044;-76
2023/01/12 06:33:44;;;;;;;5.97;0.73;;;8.40;99.90;;;;;;5045957;28;20110;-77
2023/01/12 06:36:10;;;;;;;1.83;0.70;;;8.50;99.90;;;;;;5024256;28;20041;-76
2023/01/12 06:38:36;;;;;;;3.43;0.47;;;8.50;99.90;;;;;;5024315;28;20033;-77
2023/01/12 06:42:27;;;;;;;6.23;0.80;;;8.50;99.90;;;;;;5029490;28;20079;-77
2023/01/12 06:43:54;;;;;;;3.57;0.53;;;;;;;;;;5028955;28;20454;-76
2023/01/12 06:46:20;;;;;;;2.73;0.70;;;;;;;;;;5040476;28;20040;-77
2023/01/12 06:48:46;;;;;;;1.27;0.50;;;;;;;;;;5045525;28;20034;-78
2023/01/12 06:51:12;;;;;;;2.10;0.63;;;;;;;;;;5045738;28;20026;-77
2023/01/12 06:53:38;;;;;;;3.60;0.60;;;;;;;;;;5030198;28;20919;-77
2023/01/12 06:56:04;;;;;;;3.53;0.47;;;;;;;;;;5033649;28;20050;-77
2023/01/12 06:58:32;;;;;;;4.67;0.73;;;;;;;;;;5045427;28;20045;-77
2023/01/12 07:01:02;;;;;;;2.27;0.97;;;;;;;;;;5047297;28;20033;-77
2023/01/12 07:03:28;;;;;;;1.47;0.60;;;;;;;;;;5044900;28;20038;-77
2023/01/12 07:05:59;;;;;;;2.20;0.73;;;;;;;;;;5026351;28;20109;-77
2023/01/12 07:08:26;;;;;;;3.63;1.10;;;;;;;;;;5039107;28;20381;-77
2023/01/12 07:10:54;;;;;;;3.43;0.67;;;;;;;;;;5032004;28;20025;-77
2023/01/12 07:13:20;;;;;;;6.20;1.20;;;;;;;;;;5026544;28;20029;-77
2023/01/12 07:15:47;;;;;;;7.30;1.07;;;;;;;;;;5042884;28;20102;-77
2023/01/12 07:18:12;;;;;;;8.63;1.60;;;;;;;;;;5025912;28;20037;-77
2023/01/12 07:20:38;;;;;;;6.20;1.00;;;;;;;;;;5026195;28;20545;-77
2023/01/12 07:23:04;;;;;;;7.93;1.20;;;;;;;;;;5039075;28;20040;-77
2023/01/12 07:25:30;;;;;;;5.43;1.07;;;;;;;;;;5026470;28;20112;-78
2023/01/12 07:27:57;;;;;;;4.00;1.07;;;;;;;;;;5030335;28;20443;-78
2023/01/12 07:30:24;;;;;;;7.37;1.63;;;;;;;;;;5027087;28;20342;-77
2023/01/12 07:32:53;;;;;;;4.23;0.97;;;;;;;;;;5028367;28;20025;-75
2023/01/12 07:35:19;;;;;;;7.80;1.07;;;;;;;;;;5024316;28;20374;-76
2023/01/12 07:37:49;;;;;;;2.90;0.87;;;;;;;;;;5029232;28;20132;-77
2023/01/12 07:40:15;;;;;;;5.70;1.03;;;;;;;;;;5026451;28;20045;-77
2023/01/12 07:42:41;;;;;;;6.47;1.23;;;;;;;;;;5045887;28;20033;-76
2023/01/12 07:45:07;;;;;;;6.83;1.27;;;;;;;;;;5048798;28;20081;-76
2023/01/12 07:47:34;;;;;;;5.57;1.10;;;;;;;;;;5027265;28;20029;-76
2023/01/12 07:50:00;;;;;;;5.60;0.60;;;;;;;;;;5031962;28;20032;-75
2023/01/12 07:52:26;;;;;;;4.47;0.87;;;;;;;;;;5033635;28;20071;-76
2023/01/12 07:54:52;;;;;;;7.07;0.70;;;;;;;;;;5051368;28;20033;-75
2023/01/12 07:57:20;;;;;;;5.73;1.07;;;;;;;;;;5050967;28;20115;-76
2023/01/12 07:59:46;;;;;;;3.73;0.90;;;;;;;;;;5050798;28;20030;-76
2023/01/12 08:02:15;;;;;;;3.77;0.73;;;;;;;;;;5051126;28;20251;-75
2023/01/12 08:04:41;;;;;;;6.10;0.93;;;;;;;;;;5028114;28;20184;-76
2023/01/12 08:07:06;;;;;;;10.93;1.23;;;9.40;99.90;;;;;;5034120;28;20025;-76
2023/01/12 08:09:32;;;;;;;5.10;0.70;;;9.60;99.90;;;;;;5027901;28;20488;-76
2023/01/12 08:12:00;;;;;;;2.83;0.57;;;9.70;99.90;;;;;;5050550;28;20033;-75
2023/01/12 08:14:27;;;;;;;4.10;0.60;;;;;;;;;;5052945;28;20040;-77
2023/01/12 08:16:55;;;;;;;4.00;0.60;;;;;;;;;;5049399;28;20030;-77
2023/01/12 08:19:27;;;;;;;8.43;1.07;;;;;;;;;;5027153;28;20507;-75
2023/01/12 08:21:57;;;;;;;3.10;0.60;;;;;;;;;;5033633;28;20048;-77
2023/01/12 08:24:25;;;;;;;5.87;1.13;;;;;;;;;;5032936;28;20045;-75
2023/01/12 08:26:52;;;;;;;6.80;0.67;;;;;;;;;;5048801;28;20038;-76
2023/01/12 08:29:30;;;;;;;3.93;0.63;;;;;;;;;;5042049;28;20164;-76
2023/01/12 08:32:02;;;;;;;4.00;0.50;;;;;;;;;;5029944;28;20509;-76
2023/01/12 08:34:31;;;;;;;3.60;0.73;;;;;;;;;;5032300;28;20061;-77
2023/01/12 08:36:59;;;;;;;3.97;0.50;;;;;;;;;;5031487;28;20073;-77
2023/01/12 08:39:25;;;;;;;3.27;0.70;;;;;;;;;;5032750;28;20033;-76
2023/01/12 08:41:51;;;;;;;0.60;0.30;;;;;;;;;;5048308;28;20037;-75
2023/01/12 08:44:17;;;;;;;2.37;0.27;;;;;;;;;;5029466;28;20091;-75
2023/01/12 08:46:53;;;;;;;2.63;0.50;;;;;;;;;;5032311;28;20723;-77
2023/01/12 08:49:20;;;;;;;3.50;0.70;;;;;;;;;;5040793;28;20021;-76
2023/01/12 08:51:46;;;;;;;1.37;0.80;;;;;;;;;;5029119;28;20025;-76
2023/01/12 08:54:13;;;;;;;1.87;0.40;;;;;;;;;;5032222;28;20037;-75
2023/01/12 08:56:39;;;;;;;2.57;0.40;;;;;;;;;;5047282;28;20045;-76
2023/01/12 08:59:05;;;;;;;2.63;0.40;;;;;;;;;;5025323;28;20041;-75
2023/01/12 09:01:31;;;;;;;2.00;0.60;;;;;;;;;;5041190;28;20059;-77
2023/01/12 09:04:00;;;;;;;2.07;0.20;;;;;;;;;;5028607;28;20047;-76
2023/01/12 09:06:35;;;;;;;2.50;0.43;;;;;;;;;;5031799;28;20021;-77
2023/01/12 09:09:04;;;;;;;0.97;0.20;;;;;;;;;;5028894;28;20025;-76
2023/01/12 09:11:31;;;;;;;2.43;0.50;;;;;;;;;;5047369;28;20458;-77
2023/01/12 09:13:57;;;;;;;4.77;0.40;;;;;;;;;;5031606;28;20343;-76
2023/01/12 09:16:24;;;;;;;2.37;0.70;;;;;;;;;;5027469;28;20040;-76
2023/01/12 09:18:50;;;;;;;1.13;0.30;;;;;;;;;;5048380;28;20155;-77
2023/01/12 09:21:18;;;;;;;0.70;0.23;;;;;;;;;;5027752;28;20079;-75
2023/01/12 09:23:44;;;;;;;1.10;0.40;;;;;;;;;;5042450;28;20682;-76
2023/01/12 09:26:11;;;;;;;2.73;0.30;;;;;;;;;;5033198;28;20088;-77
2023/01/12 09:28:38;;;;;;;1.80;0.27;;;;;;;;;;5042227;28;20121;-76
2023/01/12 09:31:08;;;;;;;4.50;1.70;;;;;;;;;;5046730;28;20021;-76
2023/01/12 09:33:35;;;;;;;1.30;0.30;;;;;;;;;;5047351;28;20113;-76
2023/01/12 09:36:11;;;;;;;1.93;0.43;;;;;;;;;;5047732;28;20033;-76
2023/01/12 09:38:38;;;;;;;2.97;0.40;;;;;;;;;;5030302;28;20039;-76
2023/01/12 09:46:57;;;;;;;2.40;0.50;;;;;;;;;;5039580;28;20064;-76
2023/01/12 09:47:09;;;;;;;2.17;0.30;;;;;;;;;;5031021;28;20044;-77
2023/01/12 09:49:40;;;;;;;0.90;0.20;;;;;;;;;;5040469;28;20072;-77
2023/01/12 09:52:09;;;;;;;3.87;0.77;;;;;;;;;;5039706;28;20029;-77
2023/01/12 09:54:35;;;;;;;1.93;0.53;;;;;;;;;;5046156;28;20935;-77
2023/01/12 09:57:04;;;;;;;2.97;0.40;;;;;;;;;;5027989;28;20087;-76
2023/01/12 09:59:39;;;;;;;2.53;0.30;;;;;;;;;;5042314;28;20029;-76
2023/01/12 10:02:09;;;;;;;3.00;0.60;;;;;;;;;;5040210;28;20041;-76
2023/01/12 10:04:39;;;;;;;2.10;0.20;;;;;;;;;;5033747;28;20052;-77
2023/01/12 10:07:05;;;;;;;3.37;1.00;;;;;;;;;;5031386;28;20434;-76
2023/01/12 10:09:33;;;;;;;1.43;0.50;;;;;;;;;;5050158;28;20033;-76
2023/01/12 10:11:59;;;;;;;2.30;0.53;;;;;;;;;;5027575;28;20243;-75
2023/01/12 10:14:34;;;;;;;1.63;0.47;;;;;;;;;;5041589;28;20167;-76
2023/01/12 10:17:11;;;;;;;2.57;0.30;;;;;;;;;;5046057;28;20040;-77
2023/01/12 10:19:41;;;;;;;3.63;0.37;;;;;;;;;;5038516;28;20121;-76
2023/01/12 10:22:37;;;;;;;2.77;0.57;;;10.50;99.90;;;;;;5030719;28;20029;-76
2023/01/12 10:25:18;;;;;;;3.80;0.50;;;;;;;;;;5030381;28;20464;-76
2023/01/12 10:27:45;;;;;;;2.53;0.40;;;;;;;;;;5030094;28;20025;-76
2023/01/12 10:30:20;;;;;;;3.30;0.60;;;;;;;;;;5025003;28;20036;-76
2023/01/12 10:32:46;;;;;;;3.17;0.40;;;10.70;99.90;;;;;;5040219;28;20429;-75
2023/01/12 10:35:14;;;;;;;2.43;0.60;;;;;;;;;;5030469;28;20541;-75
2023/01/12 10:37:48;;;;;;;1.03;0.30;;;;;;;;;;5046075;28;20574;-77
2023/01/12 10:40:34;;;;;;;1.63;0.30;;;;;;;;;;5047086;28;20083;-76
2023/01/12 10:43:18;;;;;;;1.77;0.47;;;;;;;;;;5046453;28;20025;-75
2023/01/12 10:45:51;;;;;;;3.00;0.50;;;;;;;;;;5046098;28;20134;-76
2023/01/12 10:48:20;;;;;;;1.35;0.40;;;;;;;;;;5024962;28;20156;-76
2023/01/12 10:51:07;;;;;;;3.10;0.50;;;;;;;;;;5030718;28;20028;-76
2023/01/12 10:54:06;;;;;;;2.47;0.47;;;10.90;99.90;;;;;;5030572;28;20040;-75
2023/01/12 10:56:38;;;;;;;3.27;0.47;;;;;;;;;;5032293;28;20036;-77
2023/01/12 10:59:12;;;;;;;2.63;0.40;;;;;;;;;;5030689;28;20056;-78
2023/01/12 11:01:42;;;;;;;1.10;0.30;;;;;;;;;;5046356;28;20025;-76
2023/01/12 11:04:10;;;;;;;1.10;0.30;;;;;;;;;;5046615;28;20044;-76
2023/01/12 11:06:37;;;;;;;1.17;0.23;;;;;;;;;;5046346;28;20442;-77
2023/01/12 11:09:23;;;;;;;0.17;0.17;;;11.20;99.90;;;;;;5027110;28;20105;-74
2023/01/12 11:11:55;;;;;;;1.73;0.20;;;;;;;;;;5028152;28;20033;-75
2023/01/12 11:14:25;;;;;;;0.52;0.22;;;;;;;;;;5047084;28;20033;-75
2023/01/12 11:16:50;;;;;;;0.93;0.30;;;11.20;99.90;;;;;;5030204;28;20166;-75
2023/01/12 11:19:23;;;;;;;1.30;0.40;;;;;;;;;;5035198;28;20415;-76
2023/01/12 11:21:55;;;;;;;1.88;0.40;;;11.30;99.90;;;;;;5049273;28;20033;-76
2023/01/12 11:24:22;;;;;;;;;;;;;;;;;;5033754;28;20052;-76
2023/01/12 11:26:49;;;;;;;0.50;0.30;;;11.40;99.90;;;;;;5042674;28;20403;-76
2023/01/12 11:29:24;;;;;;;1.00;0.50;;;;;;;;;;5051026;28;20025;-76
2023/01/12 11:31:53;;;;;;;0.73;0.20;;;;;;;;;;5049722;28;20029;-75
2023/01/12 11:34:21;;;;;;;1.40;0.30;;;;;;;;;;5053015;28;20049;-76
2023/01/12 11:36:50;;;;;;;2.43;0.20;;;;;;;;;;5049294;28;20037;-77
2023/01/12 11:39:22;;;;;;;1.47;0.50;;;;;;;;;;5025301;28;20119;-76
2023/01/12 11:44:51;;;;;;;3.80;0.43;;;;;;;;;;5033162;28;20130;-76
2023/01/12 11:47:31;;;;;;;2.40;0.50;;;;;;;;;;5042935;28;20056;-76
2023/01/12 11:50:17;;;;;;;1.97;0.50;;;;;;;;;;5027616;28;20121;-75
2023/01/12 11:52:48;;;;;;;2.23;0.20;;;11.60;99.90;;;;;;5042394;28;20036;-79
2023/01/12 11:55:16;;;;;;;2.23;0.50;;;11.70;99.90;;;;;;5024430;28;20787;-78
2023/01/12 11:57:41;;;;;;;2.03;0.43;;;11.70;99.90;;;;;;5033207;28;20033;-75
2023/01/12 12:00:44;;;;;;;0.50;0.13;;;11.80;99.90;;;;;;5025237;28;20456;-76
2023/01/12 12:03:26;;;;;;;;;;;11.80;99.90;;;;;;5033185;28;20034;-76
2023/01/12 12:05:55;;;;;;;1.80;0.40;;;11.70;99.90;;;;;;5041942;28;19913;-77
2023/01/12 12:08:40;;;;;;;1.63;0.40;;;;;;;;;;5043714;28;20032;-76
2023/01/12 12:11:34;;;;;;;3.20;0.50;;;11.60;99.90;;;;;;5049911;28;20365;-76
2023/01/12 12:14:07;;;;;;;1.83;0.40;;;;;;;;;;5045570;28;20026;-76
2023/01/12 12:16:59;;;;;;;2.73;0.30;;;11.50;99.90;;;;;;5050937;28;20034;-75
2023/01/12 12:19:43;;;;;;;2.17;0.30;;;;;;;;;;5033011;28;20030;-76
2023/01/12 12:22:22;;;;;;;2.37;0.50;;;;;;;;;;5048534;28;20063;-75
2023/01/12 12:25:18;;;;;;;1.97;0.50;;;11.20;99.90;;;;;;5032531;28;20040;-76
2023/01/12 12:27:58;;;;;;;2.80;0.40;;;11.20;99.90;;;;;;5041286;28;20104;-76
2023/01/12 12:30:40;;;;;;;1.83;0.40;;;;;;;;;;5042356;28;20040;-76
2023/01/12 12:33:27;;;;;;;1.70;0.57;;;11.20;99.90;;;;;;5030343;28;20064;-76
2023/01/12 12:36:22;;;;;;;4.63;1.33;;;11.10;99.90;;;;;;5047642;28;20025;-76
2023/01/12 12:38:53;;;;;;;1.97;0.47;;;11.10;99.90;;;;;;5040630;28;20037;-77
2023/01/12 12:47:43;;;;;;;1.43;0.30;;;;;;;;;;5031985;28;20127;-75
2023/01/12 12:50:27;;;;;;;0.73;0.20;;;;;;;;;;5027119;28;20079;-76
2023/01/12 12:53:06;;;;;;;1.23;0.20;;;;;;;;;;5025715;28;20343;-75
2023/01/12 12:55:32;;;;;;;0.83;0.20;;;;;;;;;;5028341;28;20366;-75
2023/01/12 12:58:21;;;;;;;1.67;0.33;;;;;;;;;;5042136;28;20049;-77
2023/01/12 13:00:48;;;;;;;1.53;0.27;;;;;;;;;;5027727;28;20045;-77
2023/01/12 13:03:32;;;;;;;1.03;0.47;;;;;;;;;;5047509;28;20051;-76
2023/01/12 13:06:11;;;;;;;1.83;0.30;;;;;;;;;;5032016;28;20060;-77
2023/01/12 13:08:38;;;;;;;1.23;0.20;;;;;;;;;;5041914;28;20025;-76
2023/01/12 13:11:05;;;;;;;0.90;0.30;;;;;;;;;;5039269;28;20029;-76
2023/01/12 13:13:32;;;;;;;2.37;0.20;;;;;;;;;;5046158;28;20091;-76
2023/01/12 13:16:13;;;;;;;1.53;0.40;;;10.90;99.90;;;;;;5041370;28;20450;-76
2023/01/12 13:18:42;;;;;;;0.30;0.10;;;;;;;;;;5024999;28;20037;-76
2023/01/12 13:21:26;;;;;;;3.43;0.20;;;;;;;;;;5046949;28;20041;-76
2023/01/12 13:24:11;;;;;;;2.67;0.70;;;;;;;;;;5043595;28;20029;-76
2023/01/12 13:26:39;;;;;;;1.20;0.13;;;;;;;;;;5027579;28;20072;-76
2023/01/12 13:29:24;;;;;;;5.00;0.40;;;;;;;;;;5048495;28;20037;-77
2023/01/12 13:31:51;;;;;;;1.87;0.20;;;;;;;;;;5047207;28;20033;-76
2023/01/12 13:34:38;;;;;;;0.83;0.20;;;;;;;;;;5042226;28;20052;-76
2023/01/12 13:37:07;;;;;;;0.87;0.40;;;;;;;;;;5041564;28;20057;-75
2023/01/12 13:39:36;;;;;;;2.87;0.37;;;11.00;99.90;;;;;;5042369;28;20037;-76
2023/01/12 13:44:48;;;;;;;0.50;0.20;;;11.10;99.90;;;;;;5034957;28;20053;-77
2023/01/12 13:47:23;;;;;;;1.93;0.47;;;11.20;99.90;;;;;;5027679;28;20025;-76
2023/01/12 13:49:51;;;;;;;0.40;0.20;;;;;;;;;;5032167;28;20095;-76
2023/01/12 13:52:38;;;;;;;2.47;0.33;;;;;;;;;;5030887;28;20018;-75
2023/01/12 13:55:17;;;;;;;0.63;0.10;;;;;;;;;;5030941;28;20025;-77
2023/01/12 13:57:54;;;;;;;2.53;0.40;;;;;;;;;;5039259;28;20480;-77
2023/01/12 14:00:22;;;;;;;1.20;0.50;;;;;;;;;;5039407;28;20025;-77
2023/01/12 14:02:48;;;;;;;0.60;0.20;;;;;;;;;;5042108;28;20033;-77
2023/01/12 14:05:26;;;;;;;2.80;0.27;;;;;;;;;;5045395;28;20033;-76
2023/01/12 14:07:55;;;;;;;2.87;0.30;;;;;;;;;;5045930;28;20116;-76
2023/01/12 14:10:24;;;;;;;1.33;0.40;;;;;;;;;;5040675;28;20029;-75
2023/01/12 14:12:56;;;;;;;0.30;0.20;;;;;;;;;;5046221;28;20029;-76
2023/01/12 14:18:16;;;;;;;0.60;0.13;;;;;;;;;;5032290;28;20832;-76
2023/01/12 14:20:42;;;;;;;1.27;0.30;;;;;;;;;;5042637;28;20052;-76
2023/01/12 14:23:17;;;;;;;0.60;0.20;;;;;;;;;;5027116;28;20030;-76
2023/01/12 14:25:43;;;;;;;1.53;0.20;;;;;;;;;;5029336;28;20104;-76
2023/01/12 14:28:16;;;;;;;1.90;0.30;;;;;;;;;;5046030;28;20021;-76
2023/01/12 14:30:47;;;;;;;3.70;0.60;;;;;;;;;;5040499;28;20872;-76
2023/01/12 14:33:39;;;;;;;1.60;0.40;;;;;;;;;;5039279;28;20087;-75
2023/01/12 14:36:17;;;;;;;0.50;0.20;;;;;;;;;;5043934;28;20521;-76
2023/01/12 14:38:43;;;;;;;1.40;0.30;;;;;;;;;;5046190;28;20021;-74
2023/01/12 14:46:23;;;;;;;1.13;0.20;;;;;;;;;;5046024;28;20025;-75
2023/01/12 14:46:46;;;;;;;1.43;0.20;;;;;;;;;;5030060;28;20875;-77
2023/01/12 14:49:24;;;;;;;1.07;0.40;;;;;;;;;;5040695;28;20021;-77
2023/01/12 14:51:52;;;;;;;1.00;0.30;;;;;;;;;;5046439;28;20033;-76
2023/01/12 14:54:19;;;;;;;2.60;0.30;;;;;;;;;;5029037;28;20030;-76
2023/01/12 14:56:48;;;;;;;1.90;0.40;;;;;;;;;;5034094;28;20055;-77
2023/01/12 14:59:17;;;;;;;3.80;0.27;;;;;;;;;;5048538;28;20119;-76
2023/01/12 15:01:43;;;;;;;2.00;0.40;;;;;;;;;;5049553;28;20059;-76
2023/01/12 15:04:15;;;;;;;1.97;0.67;;;;;;;;;;5030665;28;20029;-75
2023/01/12 15:06:42;;;;;;;0.60;0.20;;;;;;;;;;5027149;28;20776;-76
2023/01/12 15:09:43;;;;;;;0.20;0.20;;;;;;;;;;5034475;28;20106;-75
2023/01/12 15:12:28;;;;;;;1.57;0.30;;;;;;;;;;5051685;28;20135;-76
2023/01/12 15:14:54;;;;;;;1.10;0.20;;;;;;;;;;5033015;28;20033;-76